Wetterdaten: Woche 14.07.08 - 20.07.08 (KW29)
Datum Zeit Temperatur Luftfeuchte Luftdruck Niederschlag Wind Richtung Sonnenschein Solar Taupunkt Windchill Windben
14.07.2008 00:00 13.3 C 89 % 1016.8 hPa 0.0 l/m 3.1 km/h (1 Bft) N-NW 0.00 h 0 W/m 11.5 C 13.3 C 5.8 km/h (2 Bft)
14.07.2008 01:00 13.4 C 91 % 1016.7 hPa 0.0 l/m 1.1 km/h (1 Bft) N 0.00 h 0 W/m 12.0 C 13.4 C 2.6 km/h (1 Bft)
14.07.2008 02:00 13.5 C 92 % 1016.7 hPa 0.2 l/m 0.8 km/h (0 Bft) NW 0.00 h 0 W/m 12.2 C 13.5 C 2.1 km/h (1 Bft)
14.07.2008 03:00 13.3 C 93 % 1016.7 hPa 0.2 l/m 0.9 km/h (0 Bft) NW 0.00 h 0 W/m 12.2 C 13.3 C 2.5 km/h (1 Bft)
14.07.2008 04:00 13.1 C 93 % 1016.7 hPa 0.4 l/m 0.2 km/h (0 Bft) NW 0.00 h 0 W/m 12.0 C 13.1 C 1.2 km/h (1 Bft)
14.07.2008 05:00 12.8 C 94 % 1016.9 hPa 0.2 l/m 0.4 km/h (0 Bft) NW 0.00 h 0 W/m 11.9 C 12.8 C 1.5 km/h (1 Bft)
14.07.2008 06:00 12.8 C 95 % 1017.3 hPa 0.0 l/m 1.1 km/h (0 Bft) N 0.00 h 16 W/m 12.1 C 12.8 C 2.7 km/h (1 Bft)
14.07.2008 07:00 13.0 C 96 % 1018.0 hPa 0.0 l/m 0.7 km/h (0 Bft) N 0.00 h 50 W/m 12.4 C 13.0 C 2.2 km/h (1 Bft)
14.07.2008 08:00 13.4 C 97 % 1019.0 hPa 0.0 l/m 0.0 km/h (0 Bft) N 0.00 h 100 W/m 12.9 C 13.4 C 0.3 km/h (0 Bft)
14.07.2008 09:00 14.6 C 92 % 1019.7 hPa 0.0 l/m 1.1 km/h (0 Bft) N 0.22 h 264 W/m 13.3 C 14.6 C 2.5 km/h (1 Bft)
14.07.2008 10:00 16.1 C 84 % 1020.1 hPa 0.0 l/m 1.2 km/h (1 Bft) NW 0.15 h 348 W/m 13.5 C 16.1 C 3.0 km/h (1 Bft)
14.07.2008 11:00 17.1 C 78 % 1020.6 hPa 0.0 l/m 3.6 km/h (1 Bft) W 0.32 h 371 W/m 13.1 C 17.1 C 6.5 km/h (2 Bft)
14.07.2008 12:00 17.1 C 78 % 1021.4 hPa 0.0 l/m 2.9 km/h (1 Bft) S 0.07 h 257 W/m 13.2 C 17.1 C 6.2 km/h (2 Bft)
14.07.2008 13:00 18.2 C 74 % 1021.8 hPa 0.0 l/m 3.3 km/h (1 Bft) S-SO 0.12 h 388 W/m 13.5 C 18.2 C 6.9 km/h (2 Bft)
14.07.2008 14:00 17.2 C 80 % 1022.2 hPa 0.4 l/m 2.6 km/h (1 Bft) S-SO 0.00 h 144 W/m 13.7 C 17.2 C 5.8 km/h (2 Bft)
14.07.2008 15:00 16.2 C 88 % 1023.1 hPa 0.0 l/m 2.3 km/h (1 Bft) S-SO 0.05 h 179 W/m 14.2 C 16.2 C 5.5 km/h (1 Bft)
14.07.2008 16:00 16.2 C 86 % 1023.6 hPa 0.0 l/m 2.5 km/h (1 Bft) S-SO 0.23 h 281 W/m 13.9 C 16.2 C 5.9 km/h (2 Bft)
14.07.2008 17:00 16.8 C 80 % 1024.0 hPa 0.0 l/m 3.3 km/h (1 Bft) S 0.02 h 176 W/m 13.3 C 16.8 C 7.4 km/h (2 Bft)
14.07.2008 18:00 15.8 C 78 % 1024.8 hPa 0.0 l/m 4.1 km/h (1 Bft) S-SO 0.00 h 38 W/m 12.0 C 15.8 C 8.7 km/h (2 Bft)
14.07.2008 19:00 15.1 C 78 % 1025.5 hPa 0.0 l/m 5.0 km/h (1 Bft) S-SO 0.00 h 65 W/m 11.3 C 15.1 C 10.8 km/h (2 Bft)
14.07.2008 20:00 14.9 C 80 % 1026.0 hPa 0.0 l/m 2.3 km/h (1 Bft) S 0.00 h 30 W/m 11.5 C 14.9 C 5.5 km/h (1 Bft)
14.07.2008 21:00 14.8 C 81 % 1026.4 hPa 0.0 l/m 1.5 km/h (1 Bft) S-SO 0.00 h 5 W/m 11.7 C 14.8 C 3.6 km/h (1 Bft)
14.07.2008 22:00 14.0 C 85 % 1027.0 hPa 0.0 l/m 2.3 km/h (1 Bft) SO 0.00 h 0 W/m 11.5 C 14.0 C 3.7 km/h (1 Bft)
14.07.2008 23:00 13.1 C 89 % 1027.6 hPa 0.0 l/m 2.2 km/h (1 Bft) O-SO 0.00 h 0 W/m 11.4 C 13.1 C 3.6 km/h (1 Bft)
15.07.2008 00:00 12.1 C 93 % 1028.2 hPa 0.0 l/m 0.7 km/h (0 Bft) O-SO 0.00 h 0 W/m 11.0 C 12.1 C 1.7 km/h (1 Bft)
15.07.2008 01:00 11.2 C 96 % 1028.4 hPa 0.0 l/m 0.3 km/h (0 Bft) O-SO 0.00 h 0 W/m 10.6 C 11.2 C 0.9 km/h (0 Bft)
15.07.2008 02:00 10.7 C 97 % 1028.6 hPa 0.0 l/m 0.3 km/h (0 Bft) O-SO 0.00 h 0 W/m 10.3 C 10.7 C 0.6 km/h (0 Bft)
15.07.2008 03:00 11.2 C 99 % 1028.5 hPa 0.0 l/m 0.0 km/h (0 Bft) N 0.00 h 0 W/m 11.1 C 11.2 C 0.0 km/h (0 Bft)
15.07.2008 04:00 11.4 C 100 % 1028.3 hPa 0.0 l/m 0.4 km/h (0 Bft) O-SO 0.00 h 0 W/m 11.4 C 11.4 C 1.6 km/h (1 Bft)
15.07.2008 05:00 11.0 C 100 % 1028.8 hPa 0.0 l/m 0.2 km/h (0 Bft) O-SO 0.00 h 0 W/m 11.0 C 11.0 C 1.2 km/h (1 Bft)
15.07.2008 06:00 10.8 C 100 % 1029.1 hPa 0.0 l/m 0.1 km/h (0 Bft) O-SO 0.00 h 16 W/m 10.8 C 10.8 C 1.0 km/h (0 Bft)
15.07.2008 07:00 10.9 C 100 % 1029.4 hPa 0.2 l/m 0.3 km/h (0 Bft) O-SO 0.00 h 63 W/m 10.9 C 10.9 C 0.8 km/h (0 Bft)
15.07.2008 08:00 11.3 C 100 % 1029.6 hPa 0.0 l/m 0.1 km/h (0 Bft) O-SO 0.00 h 129 W/m 11.3 C 11.3 C 0.8 km/h (0 Bft)
15.07.2008 09:00 12.6 C 97 % 1029.6 hPa 0.0 l/m 0.7 km/h (0 Bft) SW 0.12 h 248 W/m 12.2 C 12.6 C 2.0 km/h (1 Bft)
15.07.2008 10:00 16.0 C 84 % 1029.3 hPa 0.0 l/m 1.5 km/h (1 Bft) W-SW 1.00 h 636 W/m 13.2 C 16.0 C 3.4 km/h (1 Bft)
15.07.2008 11:00 19.0 C 70 % 1028.8 hPa 0.0 l/m 3.1 km/h (1 Bft) W 1.00 h 763 W/m 13.4 C 19.0 C 5.1 km/h (1 Bft)
15.07.2008 12:00 21.0 C 53 % 1028.3 hPa 0.0 l/m 3.7 km/h (1 Bft) O-SO 1.00 h 843 W/m 11.0 C 21.0 C 6.5 km/h (2 Bft)
15.07.2008 13:00 22.5 C 42 % 1027.8 hPa 0.0 l/m 2.3 km/h (1 Bft) O-SO 1.00 h 875 W/m 8.9 C 22.5 C 4.9 km/h (1 Bft)
15.07.2008 14:00 23.7 C 38 % 1027.1 hPa 0.0 l/m 2.4 km/h (1 Bft) W-NW 1.00 h 851 W/m 8.7 C 23.7 C 4.9 km/h (1 Bft)
15.07.2008 15:00 24.7 C 36 % 1026.3 hPa 0.0 l/m 3.6 km/h (1 Bft) W 0.90 h 708 W/m 8.7 C 24.7 C 6.3 km/h (2 Bft)
15.07.2008 16:00 24.7 C 38 % 1026.1 hPa 0.0 l/m 3.5 km/h (1 Bft) N-NW 0.93 h 627 W/m 9.2 C 24.7 C 6.3 km/h (2 Bft)
15.07.2008 17:00 25.3 C 37 % 1025.9 hPa 0.0 l/m 3.4 km/h (1 Bft) W 1.00 h 521 W/m 9.7 C 25.3 C 6.2 km/h (2 Bft)
15.07.2008 18:00 25.4 C 38 % 1025.5 hPa 0.0 l/m 6.3 km/h (2 Bft) W 1.00 h 360 W/m 10.1 C 25.4 C 9.7 km/h (2 Bft)
15.07.2008 19:00 24.5 C 42 % 1025.5 hPa 0.0 l/m 5.5 km/h (1 Bft) W 1.00 h 200 W/m 10.5 C 24.5 C 8.7 km/h (2 Bft)
15.07.2008 20:00 22.7 C 49 % 1025.5 hPa 0.0 l/m 1.9 km/h (1 Bft) W-SW 0.30 h 57 W/m 11.5 C 22.7 C 3.8 km/h (1 Bft)
15.07.2008 21:00 19.6 C 60 % 1025.6 hPa 0.0 l/m 1.8 km/h (1 Bft) O-SO 0.02 h 8 W/m 11.6 C 19.6 C 3.2 km/h (1 Bft)
15.07.2008 22:00 16.8 C 73 % 1025.9 hPa 0.0 l/m 3.2 km/h (1 Bft) O-SO 0.00 h 0 W/m 11.9 C 16.8 C 4.7 km/h (1 Bft)
15.07.2008 23:00 15.3 C 77 % 1025.7 hPa 0.0 l/m 2.1 km/h (1 Bft) O-SO 0.00 h 0 W/m 11.3 C 15.3 C 3.2 km/h (1 Bft)
16.07.2008 00:00 14.1 C 82 % 1025.5 hPa 0.0 l/m 0.9 km/h (0 Bft) O-SO 0.00 h 0 W/m 11.2 C 14.1 C 1.9 km/h (1 Bft)
16.07.2008 01:00 13.1 C 86 % 1025.3 hPa 0.0 l/m 0.8 km/h (0 Bft) O-SO 0.00 h 0 W/m 10.8 C 13.1 C 1.8 km/h (1 Bft)
16.07.2008 02:00 12.6 C 88 % 1025.0 hPa 0.0 l/m 0.9 km/h (0 Bft) O-SO 0.00 h 0 W/m 10.6 C 12.6 C 2.2 km/h (1 Bft)
16.07.2008 03:00 12.3 C 89 % 1024.8 hPa 0.0 l/m 0.3 km/h (0 Bft) O-SO 0.00 h 0 W/m 10.5 C 12.3 C 1.5 km/h (1 Bft)
16.07.2008 04:00 11.5 C 92 % 1024.3 hPa 0.0 l/m 0.4 km/h (0 Bft) O-SO 0.00 h 0 W/m 10.4 C 11.5 C 1.3 km/h (1 Bft)
16.07.2008 05:00 11.2 C 94 % 1024.1 hPa 0.0 l/m 0.7 km/h (0 Bft) O-SO 0.02 h 7 W/m 10.2 C 11.2 C 1.9 km/h (1 Bft)
16.07.2008 06:00 11.1 C 96 % 1023.6 hPa 0.0 l/m 0.2 km/h (0 Bft) O-SO 0.00 h 23 W/m 10.4 C 11.1 C 0.7 km/h (0 Bft)
16.07.2008 07:00 12.7 C 93 % 1023.3 hPa 0.0 l/m 0.0 km/h (0 Bft) N 0.80 h 157 W/m 11.6 C 12.7 C 0.0 km/h (0 Bft)
16.07.2008 08:00 15.3 C 85 % 1023.0 hPa 0.0 l/m 0.2 km/h (0 Bft) O-SO 1.00 h 331 W/m 12.7 C 15.3 C 1.1 km/h (0 Bft)
16.07.2008 09:00 18.2 C 75 % 1022.6 hPa 0.0 l/m 0.8 km/h (0 Bft) S-SO 1.00 h 493 W/m 13.7 C 18.2 C 2.4 km/h (1 Bft)
16.07.2008 10:00 21.2 C 66 % 1022.1 hPa 0.0 l/m 1.1 km/h (1 Bft) S-SO 1.00 h 638 W/m 14.6 C 21.2 C 3.2 km/h (1 Bft)
16.07.2008 11:00 23.4 C 52 % 1021.6 hPa 0.0 l/m 7.7 km/h (2 Bft) W-SW 1.00 h 756 W/m 12.9 C 23.4 C 12.6 km/h (3 Bft)
16.07.2008 12:00 24.3 C 47 % 1021.2 hPa 0.0 l/m 9.8 km/h (2 Bft) W 1.00 h 830 W/m 12.4 C 24.3 C 16.1 km/h (3 Bft)
16.07.2008 13:00 25.3 C 46 % 1020.2 hPa 0.0 l/m 9.0 km/h (2 Bft) W 0.97 h 835 W/m 12.9 C 25.3 C 14.9 km/h (3 Bft)
16.07.2008 14:00 26.0 C 44 % 1019.3 hPa 0.0 l/m 11.3 km/h (2 Bft) W 1.00 h 838 W/m 12.7 C 26.0 C 18.3 km/h (3 Bft)
16.07.2008 15:00 26.8 C 42 % 1018.3 hPa 0.0 l/m 10.0 km/h (2 Bft) W 1.00 h 764 W/m 12.9 C 26.8 C 16.6 km/h (3 Bft)
16.07.2008 16:00 27.0 C 42 % 1017.6 hPa 0.0 l/m 11.5 km/h (2 Bft) W 0.97 h 640 W/m 12.8 C 27.0 C 18.4 km/h (3 Bft)
16.07.2008 17:00 27.1 C 43 % 1017.2 hPa 0.0 l/m 11.2 km/h (2 Bft) W 1.00 h 524 W/m 13.5 C 27.1 C 17.9 km/h (3 Bft)
16.07.2008 18:00 26.4 C 44 % 1016.9 hPa 0.0 l/m 12.5 km/h (3 Bft) W 0.93 h 342 W/m 13.1 C 26.4 C 20.2 km/h (4 Bft)
16.07.2008 19:00 25.7 C 46 % 1016.5 hPa 0.0 l/m 9.3 km/h (2 Bft) W 0.88 h 185 W/m 13.3 C 25.7 C 15.0 km/h (3 Bft)
16.07.2008 20:00 23.7 C 54 % 1016.8 hPa 0.0 l/m 6.3 km/h (2 Bft) W-NW 0.00 h 35 W/m 13.8 C 23.7 C 9.8 km/h (2 Bft)
16.07.2008 21:00 21.9 C 62 % 1016.4 hPa 0.0 l/m 1.6 km/h (1 Bft) W-NW 0.00 h 6 W/m 14.3 C 21.9 C 3.2 km/h (1 Bft)
16.07.2008 22:00 20.9 C 66 % 1016.4 hPa 0.0 l/m 0.7 km/h (0 Bft) W-NW 0.00 h 0 W/m 14.4 C 20.9 C 2.1 km/h (1 Bft)
16.07.2008 23:00 19.5 C 74 % 1016.3 hPa 0.0 l/m 2.7 km/h (1 Bft) SO 0.00 h 0 W/m 14.8 C 19.5 C 4.5 km/h (1 Bft)
17.07.2008 00:00 20.1 C 74 % 1016.3 hPa 0.0 l/m 1.0 km/h (0 Bft) S 0.00 h 0 W/m 15.4 C 20.1 C 2.4 km/h (1 Bft)
17.07.2008 01:00 19.6 C 78 % 1016.0 hPa 0.0 l/m 0.3 km/h (0 Bft) S-SO 0.00 h 0 W/m 15.7 C 19.6 C 1.2 km/h (1 Bft)
17.07.2008 02:00 18.6 C 86 % 1015.6 hPa 0.0 l/m 0.9 km/h (0 Bft) W 0.00 h 0 W/m 16.3 C 18.6 C 2.2 km/h (1 Bft)
17.07.2008 03:00 18.3 C 88 % 1015.1 hPa 0.0 l/m 0.0 km/h (0 Bft) W-SW 0.00 h 0 W/m 16.3 C 18.3 C 0.3 km/h (0 Bft)
17.07.2008 04:00 17.9 C 91 % 1014.4 hPa 0.0 l/m 0.2 km/h (0 Bft) S-SW 0.00 h 0 W/m 16.4 C 17.9 C 0.8 km/h (0 Bft)
17.07.2008 05:00 17.6 C 94 % 1014.4 hPa 0.0 l/m 0.0 km/h (0 Bft) N 0.00 h 0 W/m 16.6 C 17.6 C 0.2 km/h (0 Bft)
17.07.2008 06:00 17.4 C 94 % 1014.6 hPa 0.2 l/m 1.4 km/h (1 Bft) W 0.00 h 6 W/m 16.4 C 17.4 C 2.4 km/h (1 Bft)
17.07.2008 07:00 16.4 C 96 % 1014.8 hPa 1.4 l/m 0.9 km/h (0 Bft) W 0.00 h 28 W/m 15.7 C 16.4 C 1.9 km/h (1 Bft)
17.07.2008 08:00 16.4 C 98 % 1014.8 hPa 3.2 l/m 0.2 km/h (0 Bft) W-NW 0.00 h 31 W/m 16.0 C 16.4 C 0.8 km/h (0 Bft)
17.07.2008 09:00 16.0 C 97 % 1015.0 hPa 1.2 l/m 0.9 km/h (0 Bft) S-SO 0.00 h 71 W/m 15.6 C 16.0 C 2.9 km/h (1 Bft)
17.07.2008 10:00 15.6 C 97 % 1015.2 hPa 3.4 l/m 2.2 km/h (1 Bft) O-SO 0.00 h 44 W/m 15.1 C 15.6 C 4.5 km/h (1 Bft)
17.07.2008 11:00 14.7 C 97 % 1015.8 hPa 1.4 l/m 2.0 km/h (1 Bft) SO 0.00 h 96 W/m 14.2 C 14.7 C 4.4 km/h (1 Bft)
17.07.2008 12:00 15.0 C 96 % 1015.7 hPa 0.0 l/m 0.0 km/h (0 Bft) N-NW 0.00 h 157 W/m 14.4 C 15.0 C 0.6 km/h (0 Bft)
17.07.2008 13:00 15.9 C 91 % 1015.4 hPa 0.2 l/m 0.6 km/h (0 Bft) O-NO 0.00 h 274 W/m 14.4 C 15.9 C 1.9 km/h (1 Bft)
17.07.2008 14:00 17.0 C 87 % 1015.1 hPa 0.0 l/m 1.7 km/h (1 Bft) O-SO 0.00 h 333 W/m 14.8 C 17.0 C 3.3 km/h (1 Bft)
17.07.2008 15:00 18.0 C 81 % 1014.8 hPa 0.0 l/m 3.4 km/h (1 Bft) SO 0.27 h 450 W/m 14.8 C 18.0 C 6.6 km/h (2 Bft)
17.07.2008 16:00 19.3 C 78 % 1014.4 hPa 0.0 l/m 3.9 km/h (1 Bft) S-SO 0.73 h 511 W/m 15.4 C 19.3 C 8.0 km/h (2 Bft)
17.07.2008 17:00 18.7 C 77 % 1014.1 hPa 0.0 l/m 4.5 km/h (1 Bft) S-SO 0.30 h 267 W/m 14.5 C 18.7 C 9.4 km/h (2 Bft)
17.07.2008 18:00 17.0 C 86 % 1014.2 hPa 0.6 l/m 1.5 km/h (1 Bft) S 0.00 h 93 W/m 14.7 C 17.0 C 3.8 km/h (1 Bft)
17.07.2008 19:00 16.9 C 86 % 1014.2 hPa 0.0 l/m 0.6 km/h (0 Bft) S-SO 0.00 h 53 W/m 14.5 C 16.9 C 1.7 km/h (1 Bft)
17.07.2008 20:00 16.5 C 85 % 1014.4 hPa 0.0 l/m 0.7 km/h (0 Bft) S-SO 0.00 h 13 W/m 14.0 C 16.5 C 1.8 km/h (1 Bft)
17.07.2008 21:00 15.9 C 89 % 1014.4 hPa 0.0 l/m 0.5 km/h (0 Bft) SO 0.00 h 0 W/m 14.0 C 15.9 C 1.6 km/h (1 Bft)
17.07.2008 22:00 15.5 C 92 % 1014.8 hPa 0.0 l/m 1.2 km/h (1 Bft) SO 0.00 h 0 W/m 14.2 C 15.5 C 2.1 km/h (1 Bft)
17.07.2008 23:00 15.2 C 93 % 1014.7 hPa 0.0 l/m 0.2 km/h (0 Bft) SO 0.00 h 0 W/m 14.1 C 15.2 C 0.9 km/h (0 Bft)
18.07.2008 00:00 15.1 C 96 % 1014.9 hPa 0.6 l/m 1.2 km/h (1 Bft) W 0.00 h 0 W/m 14.6 C 15.1 C 2.4 km/h (1 Bft)
18.07.2008 01:00 15.0 C 99 % 1014.8 hPa 0.0 l/m 1.6 km/h (1 Bft) SO 0.00 h 0 W/m 14.7 C 15.0 C 3.5 km/h (1 Bft)
18.07.2008 02:00 14.6 C 98 % 1014.4 hPa 0.0 l/m 0.5 km/h (0 Bft) S-SO 0.00 h 0 W/m 14.2 C 14.6 C 1.4 km/h (1 Bft)
18.07.2008 03:00 14.6 C 99 % 1014.2 hPa 0.0 l/m 0.1 km/h (0 Bft) S-SO 0.00 h 0 W/m 14.4 C 14.6 C 0.3 km/h (0 Bft)
18.07.2008 04:00 14.6 C 100 % 1014.1 hPa 0.0 l/m 0.2 km/h (0 Bft) S-SO 0.00 h 0 W/m 14.6 C 14.6 C 0.5 km/h (0 Bft)
18.07.2008 05:00 14.7 C 99 % 1014.1 hPa 0.0 l/m 0.1 km/h (0 Bft) S-SO 0.00 h 5 W/m 14.6 C 14.7 C 0.7 km/h (0 Bft)
18.07.2008 06:00 14.7 C 99 % 1014.2 hPa 0.0 l/m 0.1 km/h (0 Bft) S-SO 0.00 h 16 W/m 14.6 C 14.7 C 0.4 km/h (0 Bft)
18.07.2008 07:00 14.8 C 100 % 1014.4 hPa 0.0 l/m 0.5 km/h (0 Bft) W-SW 0.00 h 58 W/m 14.8 C 14.8 C 1.5 km/h (1 Bft)
18.07.2008 08:00 15.4 C 98 % 1014.5 hPa 0.0 l/m 0.4 km/h (0 Bft) O-SO 0.00 h 116 W/m 15.1 C 15.4 C 1.6 km/h (1 Bft)
18.07.2008 09:00 16.7 C 93 % 1014.8 hPa 0.0 l/m 0.7 km/h (0 Bft) W-NW 0.00 h 263 W/m 15.5 C 16.7 C 2.6 km/h (1 Bft)
18.07.2008 10:00 17.7 C 86 % 1014.8 hPa 0.0 l/m 1.7 km/h (1 Bft) W 0.00 h 325 W/m 15.3 C 17.7 C 4.2 km/h (1 Bft)
18.07.2008 11:00 19.4 C 75 % 1014.7 hPa 0.2 l/m 4.1 km/h (1 Bft) W 0.83 h 741 W/m 14.8 C 19.4 C 7.0 km/h (2 Bft)
18.07.2008 12:00 20.3 C 61 % 1014.4 hPa 0.0 l/m 10.1 km/h (2 Bft) W 0.62 h 664 W/m 12.4 C 20.3 C 15.8 km/h (3 Bft)
18.07.2008 13:00 21.4 C 54 % 1014.2 hPa 0.0 l/m 10.6 km/h (2 Bft) W 0.48 h 607 W/m 11.7 C 21.4 C 16.4 km/h (3 Bft)
18.07.2008 14:00 20.8 C 56 % 1014.2 hPa 0.0 l/m 13.3 km/h (3 Bft) W 0.43 h 445 W/m 11.8 C 20.8 C 21.3 km/h (4 Bft)
18.07.2008 15:00 22.4 C 52 % 1014.1 hPa 0.0 l/m 9.4 km/h (2 Bft) W 0.63 h 684 W/m 11.9 C 22.4 C 14.9 km/h (3 Bft)
18.07.2008 16:00 22.0 C 53 % 1014.1 hPa 0.0 l/m 13.1 km/h (3 Bft) W-NW 0.62 h 451 W/m 12.0 C 22.0 C 19.9 km/h (4 Bft)
18.07.2008 17:00 22.3 C 51 % 1014.1 hPa 0.0 l/m 13.3 km/h (3 Bft) W 0.83 h 454 W/m 11.6 C 22.3 C 21.0 km/h (4 Bft)
18.07.2008 18:00 21.6 C 53 % 1014.1 hPa 0.0 l/m 8.3 km/h (2 Bft) W 0.28 h 222 W/m 11.6 C 21.6 C 13.1 km/h (3 Bft)
18.07.2008 19:00 21.4 C 54 % 1014.1 hPa 0.0 l/m 8.1 km/h (2 Bft) W-NW 0.38 h 161 W/m 11.7 C 21.4 C 13.0 km/h (3 Bft)
18.07.2008 20:00 20.3 C 57 % 1014.5 hPa 0.0 l/m 7.1 km/h (2 Bft) W 0.22 h 53 W/m 11.5 C 20.3 C 11.0 km/h (2 Bft)
18.07.2008 21:00 18.6 C 64 % 1015.0 hPa 0.0 l/m 3.2 km/h (1 Bft) W 0.03 h 9 W/m 11.7 C 18.6 C 5.6 km/h (1 Bft)
18.07.2008 22:00 17.0 C 73 % 1015.6 hPa 0.0 l/m 2.5 km/h (1 Bft) O 0.00 h 0 W/m 12.2 C 17.0 C 4.2 km/h (1 Bft)
18.07.2008 23:00 15.5 C 81 % 1015.9 hPa 0.0 l/m 3.9 km/h (1 Bft) O-SO 0.00 h 0 W/m 12.3 C 15.5 C 5.3 km/h (1 Bft)
19.07.2008 00:00 14.9 C 83 % 1016.1 hPa 0.0 l/m 2.2 km/h (1 Bft) O 0.00 h 0 W/m 12.1 C 14.9 C 3.9 km/h (1 Bft)
19.07.2008 01:00 13.9 C 88 % 1015.9 hPa 0.0 l/m 0.4 km/h (0 Bft) O 0.00 h 0 W/m 11.9 C 13.9 C 1.3 km/h (1 Bft)
19.07.2008 02:00 13.2 C 90 % 1015.6 hPa 0.0 l/m 0.1 km/h (0 Bft) O 0.00 h 0 W/m 11.6 C 13.2 C 0.5 km/h (0 Bft)
19.07.2008 03:00 12.2 C 94 % 1015.4 hPa 0.0 l/m 0.1 km/h (0 Bft) O 0.00 h 0 W/m 11.2 C 12.2 C 0.5 km/h (0 Bft)
19.07.2008 04:00 11.8 C 95 % 1015.3 hPa 0.0 l/m 0.0 km/h (0 Bft) N 0.00 h 0 W/m 11.1 C 11.8 C 0.5 km/h (0 Bft)
19.07.2008 05:00 11.5 C 97 % 1015.3 hPa 0.0 l/m 0.0 km/h (0 Bft) N 0.00 h 7 W/m 11.0 C 11.5 C 0.1 km/h (0 Bft)
19.07.2008 06:00 11.6 C 97 % 1015.3 hPa 0.0 l/m 0.0 km/h (0 Bft) N 0.05 h 21 W/m 11.2 C 11.6 C 0.1 km/h (0 Bft)
19.07.2008 07:00 12.9 C 94 % 1015.2 hPa 0.0 l/m 0.0 km/h (0 Bft) N 0.38 h 129 W/m 11.9 C 12.9 C 0.0 km/h (0 Bft)
19.07.2008 08:00 15.7 C 85 % 1014.9 hPa 0.0 l/m 0.3 km/h (0 Bft) O 0.87 h 317 W/m 13.1 C 15.7 C 0.9 km/h (0 Bft)
19.07.2008 09:00 18.9 C 74 % 1014.5 hPa 0.0 l/m 1.3 km/h (1 Bft) S-SO 1.00 h 503 W/m 14.2 C 18.9 C 3.6 km/h (1 Bft)
19.07.2008 10:00 21.7 C 63 % 1014.2 hPa 0.0 l/m 3.4 km/h (1 Bft) S-SO 0.92 h 626 W/m 14.3 C 21.7 C 6.6 km/h (2 Bft)
19.07.2008 11:00 21.9 C 62 % 1014.0 hPa 0.0 l/m 3.5 km/h (1 Bft) W-SW 0.05 h 322 W/m 14.3 C 21.9 C 7.1 km/h (2 Bft)
19.07.2008 12:00 22.4 C 58 % 1013.9 hPa 0.0 l/m 5.9 km/h (2 Bft) W 0.27 h 425 W/m 13.7 C 22.4 C 9.2 km/h (2 Bft)
19.07.2008 13:00 24.6 C 51 % 1013.1 hPa 0.0 l/m 9.0 km/h (2 Bft) W 0.62 h 739 W/m 13.6 C 24.6 C 14.7 km/h (3 Bft)
19.07.2008 14:00 25.0 C 51 % 1012.8 hPa 0.0 l/m 10.6 km/h (2 Bft) W 0.72 h 753 W/m 14.1 C 25.0 C 17.4 km/h (3 Bft)
19.07.2008 15:00 25.3 C 52 % 1012.4 hPa 0.0 l/m 12.1 km/h (2 Bft) W 0.75 h 657 W/m 14.7 C 25.3 C 19.5 km/h (3 Bft)
19.07.2008 16:00 25.6 C 52 % 1012.3 hPa 0.0 l/m 14.0 km/h (3 Bft) W 0.75 h 576 W/m 14.9 C 25.6 C 21.3 km/h (4 Bft)
19.07.2008 17:00 24.5 C 55 % 1012.4 hPa 0.0 l/m 12.8 km/h (3 Bft) W 0.17 h 272 W/m 14.7 C 24.5 C 20.0 km/h (4 Bft)
19.07.2008 18:00 23.8 C 56 % 1012.1 hPa 0.0 l/m 13.5 km/h (3 Bft) W-NW 0.12 h 174 W/m 14.4 C 23.8 C 20.1 km/h (4 Bft)
19.07.2008 19:00 23.5 C 57 % 1011.8 hPa 0.0 l/m 11.1 km/h (2 Bft) W-NW 0.32 h 140 W/m 14.3 C 23.5 C 16.6 km/h (3 Bft)
19.07.2008 20:00 23.0 C 59 % 1011.7 hPa 0.0 l/m 5.7 km/h (1 Bft) W 0.30 h 54 W/m 14.7 C 23.0 C 8.6 km/h (2 Bft)
19.07.2008 21:00 21.9 C 64 % 1011.9 hPa 0.0 l/m 1.6 km/h (1 Bft) W 0.10 h 10 W/m 14.7 C 21.9 C 4.1 km/h (1 Bft)
19.07.2008 22:00 21.0 C 67 % 1012.2 hPa 0.0 l/m 3.7 km/h (1 Bft) W 0.00 h 0 W/m 14.7 C 21.0 C 6.8 km/h (2 Bft)
19.07.2008 23:00 21.4 C 62 % 1012.3 hPa 0.0 l/m 9.3 km/h (2 Bft) W 0.00 h 0 W/m 13.8 C 21.4 C 14.7 km/h (3 Bft)
20.07.2008 00:00 21.2 C 64 % 1012.4 hPa 0.0 l/m 8.8 km/h (2 Bft) W-NW 0.00 h 0 W/m 14.0 C 21.2 C 12.9 km/h (3 Bft)
20.07.2008 01:00 20.4 C 71 % 1012.8 hPa 0.0 l/m 5.1 km/h (1 Bft) W-SW 0.00 h 0 W/m 14.9 C 20.4 C 8.6 km/h (2 Bft)
20.07.2008 02:00 19.9 C 74 % 1013.2 hPa 0.0 l/m 3.9 km/h (1 Bft) W-SW 0.00 h 0 W/m 15.1 C 19.9 C 7.5 km/h (2 Bft)
20.07.2008 03:00 19.4 C 76 % 1013.4 hPa 0.0 l/m 1.8 km/h (1 Bft) W-NW 0.00 h 0 W/m 15.0 C 19.4 C 4.2 km/h (1 Bft)
20.07.2008 04:00 19.1 C 75 % 1013.4 hPa 0.0 l/m 2.7 km/h (1 Bft) W 0.00 h 0 W/m 14.6 C 19.1 C 5.6 km/h (1 Bft)
20.07.2008 05:00 18.7 C 76 % 1013.4 hPa 0.0 l/m 0.1 km/h (0 Bft) W-NW 0.00 h 0 W/m 14.5 C 18.7 C 0.9 km/h (0 Bft)
20.07.2008 06:00 18.5 C 79 % 1013.6 hPa 0.0 l/m 0.0 km/h (0 Bft) W-NW 0.00 h 18 W/m 14.7 C 18.5 C 0.4 km/h (0 Bft)
20.07.2008 07:00 18.6 C 83 % 1013.6 hPa 0.0 l/m 0.1 km/h (0 Bft) W-NW 0.00 h 85 W/m 15.6 C 18.6 C 0.4 km/h (0 Bft)
20.07.2008 08:00 19.6 C 80 % 1013.3 hPa 0.0 l/m 0.3 km/h (0 Bft) W-NW 0.33 h 218 W/m 15.9 C 19.6 C 1.3 km/h (1 Bft)
20.07.2008 09:00 20.2 C 75 % 1013.2 hPa 0.0 l/m 0.4 km/h (0 Bft) W-NW 0.00 h 219 W/m 15.7 C 20.2 C 1.6 km/h (1 Bft)
20.07.2008 10:00 20.9 C 73 % 1013.1 hPa 0.0 l/m 1.0 km/h (0 Bft) W-NW 0.18 h 307 W/m 15.7 C 20.9 C 2.7 km/h (1 Bft)
20.07.2008 11:00 22.0 C 70 % 1012.7 hPa 0.0 l/m 2.0 km/h (1 Bft) W 0.47 h 453 W/m 16.3 C 22.0 C 4.2 km/h (1 Bft)
20.07.2008 12:00 22.4 C 67 % 1012.3 hPa 0.0 l/m 3.6 km/h (1 Bft) W-NW 0.32 h 420 W/m 15.9 C 22.4 C 6.3 km/h (2 Bft)
20.07.2008 13:00 22.2 C 65 % 1011.9 hPa 0.0 l/m 5.0 km/h (1 Bft) W 0.00 h 317 W/m 15.3 C 22.2 C 9.1 km/h (2 Bft)
20.07.2008 14:00 23.4 C 61 % 1011.0 hPa 0.0 l/m 7.5 km/h (2 Bft) W 0.30 h 510 W/m 15.5 C 23.4 C 12.9 km/h (3 Bft)
20.07.2008 15:00 23.9 C 57 % 1010.6 hPa 0.0 l/m 16.0 km/h (3 Bft) W 0.40 h 519 W/m 14.8 C 23.9 C 24.4 km/h (4 Bft)
20.07.2008 16:00 22.9 C 60 % 1010.8 hPa 0.0 l/m 14.0 km/h (3 Bft) W 0.15 h 291 W/m 14.6 C 22.9 C 22.1 km/h (4 Bft)
20.07.2008 17:00 23.5 C 54 % 1011.0 hPa 0.0 l/m 17.9 km/h (3 Bft) W 0.80 h 457 W/m 13.7 C 23.5 C 27.7 km/h (4 Bft)
20.07.2008 18:00 22.7 C 55 % 1012.0 hPa 0.0 l/m 18.6 km/h (3 Bft) W-NW 0.75 h 306 W/m 13.1 C 22.7 C 28.2 km/h (4 Bft)
20.07.2008 19:00 21.4 C 56 % 1012.9 hPa 0.0 l/m 15.8 km/h (3 Bft) W-NW 0.93 h 191 W/m 12.2 C 21.4 C 24.2 km/h (4 Bft)
20.07.2008 20:00 19.9 C 57 % 1014.1 hPa 0.0 l/m 13.0 km/h (3 Bft) W 0.33 h 50 W/m 11.2 C 19.9 C 20.5 km/h (4 Bft)
20.07.2008 21:00 18.1 C 62 % 1015.2 hPa 0.0 l/m 5.9 km/h (2 Bft) W 0.00 h 6 W/m 10.8 C 18.1 C 9.3 km/h (2 Bft)
20.07.2008 22:00 16.8 C 67 % 1016.3 hPa 0.0 l/m 2.2 km/h (1 Bft) W 0.00 h 0 W/m 10.7 C 16.8 C 4.2 km/h (1 Bft)
20.07.2008 23:00 15.4 C 74 % 1017.0 hPa 0.0 l/m 1.7 km/h (1 Bft) O-SO 0.00 h 0 W/m 10.8 C 15.4 C 2.9 km/h (1 Bft)
Min-Datum _ 15.07.08 15.07.08 20.07.08 - 14.07.08 - - - 15.07.08 15.07.08 14.07.08
_ Min-Zeit 02:43 15:24 15:45 - 00:00 - - - 14:10 02:43 00:00
Minimum _ 10.1 C 30 % 1010.3 hPa - 0.0 km/h (0 Bft) - - - 5.3 C 10.1 C 0.0 km/h (0 Bft)
Max-Datum _ 16.07.08 15.07.08 15.07.08 17.07.08 20.07.08 - 14.07.08 14.07.08 20.07.08 16.07.08 20.07.08
_ Max-Zeit 17:15 03:56 08:45 10:48 17:16 - 09:44 13:55 12:11 17:14 15:43
Maximum _ 27.6 C 100 % 1029.8 hPa 3.4 l/m 26.1 km/h
W (4 Bft)
- 0.02 h 1178 W/m 17.4 C 27.6 C 41.7 km/h
W-NW (6 Bft)
Durchschnitt _ 18.1 C 76 % 1018.0 hPa #14.0 l/m 3.7 km/h (1 Bft) W #43:00 h 305 W/m 13.1 C 18.1 C 6.4 km/h (2 Bft)
© Kaiko 2008